Naples, FL

2:09 AM EST on November 23, 2014 (GMT -0500)
Naples Municipal | Change Station
CLOSE
Current Station
Airport
Location: Naples,
Elevation: 10 ft
Nearby Weather Stations

Elev 10 ft 26.16 °N, 81.77 °W | Updated 16 minutes ago

Overcast
Overcast
72 °F
Feels Like 72 °F
N
8
Wind Variable Wind from East

Today
High -- | Low -- °F
--% Chance of Precip.
Yesterday
High -- | Low -- °F
Precip. -- in
6:51 AM 5:35 PM
New Moon, 1% visible
Pressure 30.02 in
Visibility 9.0 miles
Clouds Overcast 1800 ft
Dew Point 71 °F
Humidity 97%
Rainfall 0.00 in
Snow Depth Not available.
UV 0 out of 12
Pollen 4.30 out of 12
Air Quality Not available.
Flu Activity Not available.
METAR KAPF 230653Z AUTO 09007KT 9SM OVC018 22/22 A3002 RMK AO2 SLP164 T02220217

More Conditions Fewer Conditions

Pressure 30.02 in
Visibility 9.0 miles
Clouds Overcast 1800 ft
Dew Point 71 °F
Humidity 97%
Rainfall 0.00 in
Snow Depth Not available.
UV 0 out of 12
Pollen 4.30 out of 12
Air Quality Not available.
Flu Activity Not available.
METAR KAPF 230653Z AUTO 09007KT 9SM OVC018 22/22 A3002 RMK AO2 SLP164 T02220217

More Conditions Fewer Conditions

10-Day Weather Forecast

Almanac

Astronomy

Nov. 23, 2014 Rise Set
Actual Time
Civil Twilight
Nautical Twilight
Astronomical Twilight
Moon
Length of Visible Light
Length of Day
Tomorrow will be .
, % of the Moon is Illuminated

Today's Extremes

State Highs State Lows

Community

WunderPhotos

Upload Photos

1,773,023 photos uploaded!

WunderBlogs® & News

Nearby

Air Quality

  Air Quality AQ Index Pollutant
Not available.

Snow Depth

Station Depth Elevation

Earthquake Activity

City Distance Mag. Time & Date
Minimum magnitude displayed is 2.5.

Coastal Water Temperatures

Place Temperature

Nearby Weather Stations